Time;durP1;ratioP1;P1;durP2;ratioP2;P2;SDS_P1;SDS_P2;PMS_P1;PMS_P2;Temp;Humidity;BMP_temperature;BMP_pressure;BME280_temperature;BME280_humidity;BME280_pressure;Samples;Min_cycle;Max_cycle;Signal;HPM_P1;HPM_P2
2022/09/17 00:00:11;;;;;;;4.50;2.13;;;14.70;99.90;;;;;;6096033;23;20676;-78
2022/09/17 00:02:38;;;;;;;4.87;3.03;;;14.70;99.90;;;;;;6078111;23;20444;-78
2022/09/17 00:05:10;;;;;;;5.20;2.50;;;14.70;99.90;;;;;;6096674;23;20900;-78
2022/09/17 00:07:37;;;;;;;4.27;1.87;;;14.60;99.90;;;;;;6096121;23;21024;-78
2022/09/17 00:10:05;;;;;;;4.03;2.10;;;14.70;99.90;;;;;;6081253;23;20479;-76
2022/09/17 00:12:37;;;;;;;4.73;2.20;;;14.70;99.90;;;;;;6095496;23;20440;-75
2022/09/17 00:15:07;;;;;;;3.53;2.40;;;14.70;99.90;;;;;;6093119;23;20427;-77
2022/09/17 00:17:36;;;;;;;3.70;2.70;;;14.70;99.90;;;;;;6096840;23;20440;-78
2022/09/17 00:20:08;;;;;;;2.93;2.43;;;14.70;99.90;;;;;;6096284;23;20427;-77
2022/09/17 00:22:39;;;;;;;5.57;2.10;;;14.70;99.90;;;;;;6066524;23;20494;-78
2022/09/17 00:25:08;;;;;;;4.23;2.23;;;14.70;99.90;;;;;;6107228;23;20459;-77
2022/09/17 00:27:38;;;;;;;3.80;2.50;;;14.80;99.90;;;;;;6096602;23;20542;-79
2022/09/17 00:30:08;;;;;;;4.80;3.00;;;14.80;99.90;;;;;;6082884;23;20439;-79
2022/09/17 00:32:35;;;;;;;4.43;2.17;;;14.80;99.90;;;;;;6080987;23;20435;-77
2022/09/17 00:35:10;;;;;;;7.40;3.43;;;14.80;99.90;;;;;;6082015;23;20490;-79
2022/09/17 00:37:38;;;;;;;2.63;2.20;;;14.80;99.90;;;;;;6096031;23;20439;-77
2022/09/17 00:40:12;;;;;;;8.07;4.33;;;14.80;99.90;;;;;;6096713;23;20435;-79
2022/09/17 00:42:39;;;;;;;3.00;2.30;;;14.80;99.90;;;;;;6093672;23;20514;-77
2022/09/17 00:45:21;;;;;;;3.23;2.93;;;14.80;99.90;;;;;;6095881;23;20231;-78
2022/09/17 00:47:55;;;;;;;2.83;2.10;;;14.80;99.90;;;;;;6095596;23;20495;-77
2022/09/17 00:50:29;;;;;;;3.27;2.23;;;14.80;99.90;;;;;;6096669;23;20446;-77
2022/09/17 00:53:05;;;;;;;5.37;2.67;;;14.80;99.90;;;;;;6095823;23;20486;-78
2022/09/17 00:56:18;;;;;;;3.97;2.30;;;14.80;99.90;;;;;;6096943;23;20430;-75
2022/09/17 00:59:15;;;;;;;4.80;2.60;;;14.90;99.90;;;;;;6082916;23;20519;-73
2022/09/17 01:08:26;;;;;;;2.20;2.00;;;14.90;99.90;;;;;;6047969;23;20463;-74
2022/09/17 01:25:07;;;;;;;5.30;3.07;;;14.90;99.90;;;;;;6008783;23;20451;-75
2022/09/17 01:28:19;;;;;;;3.50;2.17;;;14.90;99.90;;;;;;6105932;23;21001;-74
2022/09/17 01:35:21;;;;;;;15.93;9.43;;;14.90;99.90;;;;;;5939591;24;20587;-73
2022/09/17 01:41:10;;;;;;;4.20;3.50;;;14.90;99.90;;;;;;5859954;24;20450;-74
2022/09/17 01:50:30;;;;;;;5.90;2.90;;;14.90;99.90;;;;;;5873602;24;20504;-75
2022/09/17 01:57:11;;;;;;;;;;;;;;;;;;;;;
2022/09/17 02:00:46;;;;;;;;;;;;;;;;;;;;;
2022/09/17 02:03:20;;;;;;;3.30;2.53;;;15.00;99.90;;;;;;5995069;23;20775;-78
2022/09/17 02:05:54;;;;;;;3.93;3.17;;;15.00;99.90;;;;;;6098132;23;20800;-78
2022/09/17 02:08:24;;;;;;;7.63;4.53;;;14.90;99.90;;;;;;6081816;23;20459;-76
2022/09/17 02:10:59;;;;;;;5.20;3.60;;;15.00;99.90;;;;;;6097414;23;20435;-78
2022/09/17 02:13:30;;;;;;;9.97;6.00;;;15.00;99.90;;;;;;6098182;23;20974;-76
2022/09/17 02:16:02;;;;;;;3.50;2.70;;;15.00;99.90;;;;;;6097550;23;20788;-77
2022/09/17 02:18:34;;;;;;;8.67;4.10;;;15.00;99.90;;;;;;6098129;23;20713;-76
2022/09/17 02:21:10;;;;;;;7.80;3.17;;;15.00;99.90;;;;;;6097433;23;20443;-78
2022/09/17 02:23:47;;;;;;;6.80;2.70;;;15.00;99.90;;;;;;6098475;23;20439;-76
2022/09/17 02:26:23;;;;;;;5.45;3.00;;;15.00;99.90;;;;;;6097779;23;20427;-76
2022/09/17 02:28:54;;;;;;;9.23;5.60;;;15.00;99.90;;;;;;6097695;23;20210;-77
2022/09/17 02:31:21;;;;;;;11.23;6.50;;;15.00;99.90;;;;;;6083531;23;20498;-77
2022/09/17 02:33:52;;;;;;;5.70;4.43;;;15.00;99.90;;;;;;6096849;23;20744;-76
2022/09/17 02:36:23;;;;;;;5.33;3.40;;;14.90;99.90;;;;;;6097893;23;20466;-76
2022/09/17 02:38:59;;;;;;;4.53;4.13;;;14.90;99.90;;;;;;6098213;23;20482;-77
2022/09/17 02:41:36;;;;;;;5.90;3.30;;;14.90;99.90;;;;;;6095798;23;20441;-78
2022/09/17 02:44:14;;;;;;;7.37;4.73;;;14.90;99.90;;;;;;6083239;23;20440;-78
2022/09/17 02:46:57;;;;;;;7.00;4.77;;;14.90;99.90;;;;;;6098136;23;20470;-76
2022/09/17 02:49:41;;;;;;;8.53;4.30;;;14.90;99.90;;;;;;6098844;23;20518;-76
2022/09/17 02:52:16;;;;;;;6.37;4.23;;;14.90;99.90;;;;;;6097532;23;20935;-78
2022/09/17 02:54:53;;;;;;;6.97;4.97;;;14.90;99.90;;;;;;6098094;23;20724;-76
2022/09/17 02:57:28;;;;;;;8.13;4.30;;;14.90;99.90;;;;;;6097400;23;20943;-76
2022/09/17 03:00:05;;;;;;;4.47;4.07;;;14.90;99.90;;;;;;6081643;23;20476;-78
2022/09/17 03:02:37;;;;;;;5.40;4.33;;;14.90;99.90;;;;;;6097069;23;20474;-78
2022/09/17 03:05:07;;;;;;;6.63;4.23;;;14.90;99.90;;;;;;6098432;23;20446;-75
2022/09/17 03:07:35;;;;;;;8.13;5.03;;;15.00;99.90;;;;;;6096809;23;20724;-75
2022/09/17 03:10:02;;;;;;;3.87;3.20;;;14.90;99.90;;;;;;6098316;23;20803;-78
2022/09/17 03:12:29;;;;;;;6.20;3.67;;;15.00;99.90;;;;;;6081489;23;20447;-77
2022/09/17 03:14:59;;;;;;;7.73;4.83;;;15.00;99.90;;;;;;6097433;23;20451;-76
2022/09/17 03:17:26;;;;;;;6.13;3.50;;;15.00;99.90;;;;;;6097404;23;20531;-77
2022/09/17 03:19:53;;;;;;;6.77;3.30;;;15.00;99.90;;;;;;6097231;23;20502;-77
2022/09/17 03:22:20;;;;;;;8.00;3.73;;;15.00;99.90;;;;;;6096809;23;20915;-76
2022/09/17 03:24:49;;;;;;;4.03;2.90;;;15.00;99.90;;;;;;6096947;23;20440;-76
2022/09/17 03:27:23;;;;;;;8.27;4.77;;;15.00;99.90;;;;;;6082719;23;20487;-76
2022/09/17 03:29:50;;;;;;;6.43;3.10;;;15.10;99.90;;;;;;6097227;23;20794;-78
2022/09/17 03:32:19;;;;;;;6.10;3.80;;;15.10;99.90;;;;;;6081478;23;20460;-77
2022/09/17 03:34:46;;;;;;;8.73;5.10;;;15.10;99.90;;;;;;6095784;23;20446;-76
2022/09/17 03:37:13;;;;;;;8.40;3.40;;;15.10;99.90;;;;;;6094502;23;20432;-78
2022/09/17 03:39:40;;;;;;;7.03;4.53;;;15.10;99.90;;;;;;6095471;23;20436;-78
2022/09/17 03:42:19;;;;;;;5.67;3.60;;;15.10;99.90;;;;;;6076781;23;20503;-76
2022/09/17 03:44:46;;;;;;;2.90;2.70;;;15.10;99.90;;;;;;6097421;23;20442;-76
2022/09/17 03:50:26;;;;;;;5.20;3.77;;;15.10;99.90;;;;;;6065041;23;20434;-77
2022/09/17 03:52:56;;;;;;;9.20;3.90;;;15.10;99.90;;;;;;6097150;23;20479;-77
2022/09/17 03:55:25;;;;;;;5.47;3.20;;;15.10;99.90;;;;;;6096443;23;20423;-78
2022/09/17 03:57:57;;;;;;;3.50;2.60;;;15.10;99.90;;;;;;6097213;23;20427;-77
2022/09/17 04:00:25;;;;;;;5.00;3.03;;;15.20;99.90;;;;;;6096497;23;20462;-78
2022/09/17 04:02:55;;;;;;;6.30;3.70;;;15.20;99.90;;;;;;6096915;23;20440;-79
2022/09/17 04:05:28;;;;;;;6.93;4.13;;;15.20;99.90;;;;;;6092614;23;20439;-78
2022/09/17 04:07:58;;;;;;;6.10;2.97;;;15.20;99.90;;;;;;6093835;23;20515;-78
2022/09/17 04:10:28;;;;;;;4.97;3.53;;;15.20;99.90;;;;;;6094258;23;20515;-77
2022/09/17 04:13:08;;;;;;;5.93;4.50;;;15.20;99.90;;;;;;6094553;23;20489;-77
2022/09/17 04:15:41;;;;;;;10.70;3.10;;;15.20;99.90;;;;;;6083305;23;20514;-76
2022/09/17 04:18:10;;;;;;;5.73;2.57;;;15.20;99.90;;;;;;6095719;23;20438;-76
2022/09/17 04:20:41;;;;;;;4.03;3.17;;;15.20;99.90;;;;;;6095053;23;20440;-77
2022/09/17 04:23:13;;;;;;;4.50;2.33;;;15.20;99.90;;;;;;6093291;23;20455;-76
2022/09/17 04:25:43;;;;;;;3.43;2.60;;;15.20;99.90;;;;;;6094816;23;20459;-76
2022/09/17 04:28:14;;;;;;;3.10;2.33;;;15.20;99.90;;;;;;6093621;23;20913;-77
2022/09/17 04:30:44;;;;;;;5.60;3.70;;;15.20;99.90;;;;;;6095215;23;20447;-76
2022/09/17 04:33:13;;;;;;;7.83;3.67;;;15.20;99.90;;;;;;6092714;23;20977;-78
2022/09/17 04:35:42;;;;;;;5.83;3.10;;;15.20;99.90;;;;;;6095966;23;20495;-75
2022/09/17 04:38:12;;;;;;;5.80;2.57;;;15.20;99.90;;;;;;6096433;23;20435;-78
2022/09/17 04:40:43;;;;;;;4.47;2.63;;;15.20;99.90;;;;;;6096987;23;20922;-76
2022/09/17 04:43:13;;;;;;;6.97;3.10;;;15.20;99.90;;;;;;6096864;23;20427;-77
2022/09/17 04:45:41;;;;;;;4.73;2.80;;;15.30;99.90;;;;;;6096590;23;20506;-75
2022/09/17 04:48:08;;;;;;;8.43;3.23;;;15.30;99.90;;;;;;6096818;23;20506;-77
2022/09/17 04:50:55;;;;;;;8.07;3.40;;;15.20;99.90;;;;;;6073844;23;20443;-76
2022/09/17 04:53:23;;;;;;;3.43;2.37;;;15.30;99.90;;;;;;6096475;23;20439;-77
2022/09/17 04:55:50;;;;;;;2.73;2.10;;;15.30;99.90;;;;;;6096731;23;20431;-77
2022/09/17 04:58:18;;;;;;;7.47;3.40;;;15.30;99.90;;;;;;6097393;23;20443;-77
2022/09/17 05:00:47;;;;;;;4.73;2.70;;;15.30;99.90;;;;;;6096761;23;20439;-77
2022/09/17 05:03:22;;;;;;;3.90;2.50;;;15.30;99.90;;;;;;6097415;23;20435;-76
2022/09/17 05:05:51;;;;;;;6.53;2.57;;;15.30;99.90;;;;;;6095926;23;20514;-77
2022/09/17 05:08:21;;;;;;;6.00;3.47;;;15.30;99.90;;;;;;6096295;23;20431;-76
2022/09/17 05:10:53;;;;;;;9.30;3.07;;;15.30;99.90;;;;;;6096636;23;20442;-75
2022/09/17 05:13:22;;;;;;;5.07;2.20;;;15.30;99.90;;;;;;6097256;23;20435;-75
2022/09/17 05:15:49;;;;;;;3.93;2.90;;;15.30;99.90;;;;;;6096009;23;20464;-78
2022/09/17 05:18:20;;;;;;;4.20;2.30;;;15.30;99.90;;;;;;6097149;23;20463;-77
2022/09/17 05:20:47;;;;;;;7.73;3.40;;;15.30;99.90;;;;;;6096460;23;20447;-77
2022/09/17 05:23:14;;;;;;;5.67;3.00;;;15.30;99.90;;;;;;6082294;23;20439;-78
2022/09/17 05:25:41;;;;;;;5.07;3.00;;;15.30;99.90;;;;;;6096895;23;20904;-76
2022/09/17 05:28:09;;;;;;;5.70;2.70;;;15.30;99.90;;;;;;6096493;23;20447;-75
2022/09/17 05:31:26;;;;;;;3.87;2.27;;;15.30;99.90;;;;;;6096954;23;20915;-78
2022/09/17 05:34:17;;;;;;;4.07;2.63;;;15.40;99.90;;;;;;6063913;23;20458;-77
2022/09/17 05:36:48;;;;;;;3.73;2.23;;;15.40;99.90;;;;;;6064778;23;20829;-79
2022/09/17 05:39:24;;;;;;;4.13;3.13;;;15.40;99.90;;;;;;6083290;23;20446;-79
2022/09/17 05:41:58;;;;;;;8.70;3.30;;;15.40;99.90;;;;;;6036105;23;20475;-79
2022/09/17 05:44:46;;;;;;;5.10;3.20;;;15.40;99.90;;;;;;6033370;23;20439;-78
2022/09/17 05:50:10;;;;;;;4.97;2.77;;;15.40;99.90;;;;;;6058447;23;20923;-78
2022/09/17 05:52:37;;;;;;;7.50;4.30;;;15.40;99.90;;;;;;6039802;23;20447;-77
2022/09/17 05:55:04;;;;;;;8.60;3.97;;;15.40;99.90;;;;;;6038430;23;20448;-77
2022/09/17 05:57:31;;;;;;;5.90;4.00;;;15.50;99.90;;;;;;6038230;23;20422;-79
2022/09/17 05:59:58;;;;;;;4.93;3.20;;;15.50;99.90;;;;;;6039586;23;20448;-77
2022/09/17 06:02:25;;;;;;;5.47;3.00;;;15.50;99.90;;;;;;6038564;23;20449;-79
2022/09/17 06:04:52;;;;;;;4.00;1.97;;;15.50;99.90;;;;;;6039634;23;20501;-77
2022/09/17 06:07:22;;;;;;;6.53;3.20;;;15.50;99.90;;;;;;6038439;23;20445;-78
2022/09/17 06:09:49;;;;;;;4.60;2.63;;;15.50;99.90;;;;;;6040661;23;20433;-76
2022/09/17 06:12:16;;;;;;;4.77;2.40;;;15.50;99.90;;;;;;6041016;23;20441;-78
2022/09/17 06:14:42;;;;;;;5.27;3.03;;;15.50;99.90;;;;;;6041355;23;20445;-76
2022/09/17 06:17:09;;;;;;;5.53;2.97;;;15.60;99.90;;;;;;6040506;23;20502;-76
2022/09/17 06:19:36;;;;;;;3.90;2.90;;;15.60;99.90;;;;;;6041273;23;20917;-76
2022/09/17 06:22:04;;;;;;;6.93;2.90;;;15.60;99.90;;;;;;6041230;23;20445;-76
2022/09/17 06:24:33;;;;;;;4.07;2.80;;;15.60;99.90;;;;;;6040080;23;20936;-78
2022/09/17 06:27:00;;;;;;;6.77;3.40;;;15.60;99.90;;;;;;6041603;23;20438;-78
2022/09/17 06:29:27;;;;;;;5.13;2.80;;;15.70;99.90;;;;;;6039378;23;20909;-78
2022/09/17 06:31:54;;;;;;;9.43;3.90;;;15.60;99.90;;;;;;6033052;23;20449;-77
2022/09/17 06:34:26;;;;;;;8.93;4.00;;;15.70;99.90;;;;;;6055096;23;20433;-78
2022/09/17 06:36:53;;;;;;;9.40;3.93;;;15.70;99.90;;;;;;6041203;23;20504;-78
2022/09/17 06:39:23;;;;;;;4.37;3.13;;;15.60;99.90;;;;;;6039383;23;20508;-77
2022/09/17 06:41:51;;;;;;;11.23;4.63;;;15.60;99.90;;;;;;6040935;23;20444;-78
2022/09/17 06:44:18;;;;;;;6.93;3.23;;;15.70;99.90;;;;;;6039878;23;20441;-78
2022/09/17 06:46:45;;;;;;;6.20;3.20;;;15.70;99.90;;;;;;6040833;23;20433;-78
2022/09/17 06:49:12;;;;;;;5.63;3.80;;;15.80;99.90;;;;;;6026223;23;20502;-78
2022/09/17 06:51:41;;;;;;;8.47;3.70;;;15.70;99.90;;;;;;6038550;23;20437;-78
2022/09/17 06:54:09;;;;;;;10.00;4.73;;;15.80;99.90;;;;;;6040648;23;20969;-75
2022/09/17 06:56:36;;;;;;;12.73;3.87;;;15.80;99.90;;;;;;6039629;23;20437;-74
2022/09/17 06:59:04;;;;;;;6.40;4.00;;;15.80;99.90;;;;;;6040467;23;20508;-75
2022/09/17 07:01:31;;;;;;;10.43;3.53;;;15.80;99.90;;;;;;6039383;23;20448;-76
2022/09/17 07:04:00;;;;;;;4.63;3.33;;;15.80;99.90;;;;;;6040730;23;20436;-76
2022/09/17 07:06:27;;;;;;;9.60;4.53;;;15.80;99.90;;;;;;6038322;23;20442;-76
2022/09/17 07:08:55;;;;;;;12.57;4.47;;;15.80;99.90;;;;;;6039314;23;20496;-78
2022/09/17 07:11:22;;;;;;;8.97;3.37;;;15.80;99.90;;;;;;6039036;23;20862;-78
2022/09/17 07:13:49;;;;;;;8.23;3.47;;;15.80;99.90;;;;;;6024068;23;20923;-77
2022/09/17 07:16:18;;;;;;;9.80;4.63;;;15.80;99.90;;;;;;6039517;23;20441;-76
2022/09/17 07:18:45;;;;;;;6.37;4.23;;;15.80;99.90;;;;;;6039484;23;20449;-78
2022/09/17 07:21:12;;;;;;;9.97;3.40;;;15.80;99.90;;;;;;6039999;23;20445;-79
2022/09/17 07:23:39;;;;;;;7.83;3.10;;;15.80;99.90;;;;;;6039287;23;20575;-78
2022/09/17 07:26:09;;;;;;;13.40;3.83;;;15.80;99.90;;;;;;6025823;23;20434;-76
2022/09/17 07:28:39;;;;;;;6.17;3.37;;;15.80;99.90;;;;;;6039691;23;20509;-77
2022/09/17 07:31:15;;;;;;;9.03;3.60;;;15.80;99.90;;;;;;6040190;23;20504;-78
2022/09/17 07:33:43;;;;;;;8.27;3.57;;;15.80;99.90;;;;;;6038506;23;20517;-77
2022/09/17 07:36:12;;;;;;;6.03;2.90;;;15.80;99.90;;;;;;6040322;23;20441;-78
2022/09/17 07:38:39;;;;;;;7.30;3.17;;;15.90;99.90;;;;;;6039419;23;20798;-78
2022/09/17 07:41:11;;;;;;;10.47;3.27;;;15.90;99.90;;;;;;6026431;23;20444;-76
2022/09/17 07:43:41;;;;;;;6.37;3.07;;;15.90;99.90;;;;;;6039844;23;20475;-77
2022/09/17 07:46:13;;;;;;;15.03;2.70;;;16.00;99.90;;;;;;6039958;23;20433;-76
2022/09/17 07:48:40;;;;;;;9.33;4.00;;;16.00;99.90;;;;;;6034351;23;20447;-76
2022/09/17 07:51:18;;;;;;;13.70;4.93;;;16.00;99.90;;;;;;6039839;23;20436;-78
2022/09/17 07:53:56;;;;;;;10.70;3.20;;;16.00;99.90;;;;;;6033969;23;20441;-78
2022/09/17 07:56:29;;;;;;;10.27;3.33;;;16.00;99.90;;;;;;6040564;23;20441;-77
2022/09/17 07:59:08;;;;;;;9.50;3.77;;;16.10;99.90;;;;;;6038656;23;20445;-76
2022/09/17 08:01:39;;;;;;;11.63;3.20;;;16.00;99.90;;;;;;6042444;23;20441;-75
2022/09/17 08:04:07;;;;;;;7.13;2.47;;;16.00;99.90;;;;;;6039618;23;20441;-75
2022/09/17 08:06:47;;;;;;;10.73;2.80;;;16.10;99.90;;;;;;6038741;23;20429;-78
2022/09/17 08:09:14;;;;;;;11.43;4.10;;;16.10;99.90;;;;;;6033236;23;20931;-78
2022/09/17 08:11:42;;;;;;;11.73;6.80;;;16.10;99.90;;;;;;6039856;23;20506;-76
2022/09/17 08:14:12;;;;;;;11.90;4.33;;;16.20;99.90;;;;;;6039502;23;20750;-78
2022/09/17 08:16:40;;;;;;;10.70;4.57;;;16.20;99.90;;;;;;6038317;23;20475;-78
2022/09/17 08:19:10;;;;;;;7.20;3.10;;;16.20;99.90;;;;;;6040122;23;20510;-76
2022/09/17 08:22:05;;;;;;;14.90;4.63;;;16.20;99.90;;;;;;6039606;23;20427;-78
2022/09/17 08:24:33;;;;;;;12.30;4.43;;;16.20;99.90;;;;;;6028618;23;20437;-76
2022/09/17 08:27:00;;;;;;;6.63;3.53;;;16.30;99.90;;;;;;6039258;23;20791;-76
2022/09/17 08:29:27;;;;;;;11.97;4.97;;;16.40;99.90;;;;;;6038856;23;20574;-74
2022/09/17 08:31:54;;;;;;;8.60;3.83;;;16.40;99.90;;;;;;6039144;23;20461;-75
2022/09/17 08:34:24;;;;;;;6.53;2.93;;;16.50;99.90;;;;;;6039012;23;20438;-76
2022/09/17 08:36:51;;;;;;;7.23;2.50;;;16.50;99.90;;;;;;6039492;23;20452;-78
2022/09/17 08:39:21;;;;;;;6.67;2.87;;;16.60;99.90;;;;;;6039661;23;20443;-76
2022/09/17 08:42:03;;;;;;;5.63;2.43;;;16.60;99.90;;;;;;6037618;23;20442;-78
2022/09/17 08:44:52;;;;;;;4.93;1.83;;;16.60;99.90;;;;;;6024522;23;20441;-78
2022/09/17 08:47:25;;;;;;;8.53;2.60;;;16.70;99.90;;;;;;6026756;23;20440;-78
2022/09/17 08:49:55;;;;;;;5.57;2.63;;;16.70;99.90;;;;;;6038947;23;20466;-78
2022/09/17 08:52:45;;;;;;;8.47;2.40;;;16.80;99.90;;;;;;6027785;23;20457;-76
2022/09/17 08:55:25;;;;;;;4.73;1.83;;;16.80;99.90;;;;;;6036227;23;20421;-78
2022/09/17 08:57:58;;;;;;;4.33;2.40;;;16.80;99.90;;;;;;6039338;23;20443;-78
2022/09/17 09:00:32;;;;;;;6.23;2.47;;;16.90;99.90;;;;;;6038945;23;20433;-79
2022/09/17 09:03:16;;;;;;;11.67;3.80;;;16.90;99.90;;;;;;6027862;23;20445;-78
2022/09/17 09:05:46;;;;;;;11.80;2.80;;;16.90;99.90;;;;;;6039461;23;20500;-75
2022/09/17 09:08:19;;;;;;;5.10;2.40;;;16.90;99.90;;;;;;6039138;23;20799;-77
2022/09/17 09:10:51;;;;;;;6.60;3.40;;;17.00;99.90;;;;;;6037973;23;20444;-76
2022/09/17 09:13:22;;;;;;;10.83;5.50;;;17.00;99.90;;;;;;6039523;23;20751;-75
2022/09/17 09:15:54;;;;;;;7.00;3.47;;;17.00;99.90;;;;;;6038383;23;20551;-77
2022/09/17 09:18:22;;;;;;;10.10;5.50;;;17.00;99.90;;;;;;6038519;23;20446;-77
2022/09/17 09:20:52;;;;;;;6.47;3.57;;;17.00;99.90;;;;;;6038783;23;20452;-78
2022/09/17 09:23:25;;;;;;;7.43;2.80;;;17.10;99.90;;;;;;6039162;23;20446;-77
2022/09/17 09:26:04;;;;;;;5.27;2.53;;;17.10;99.90;;;;;;6038795;23;20725;-79
2022/09/17 09:28:49;;;;;;;8.00;2.30;;;17.20;99.90;;;;;;6038530;23;20437;-79
2022/09/17 09:31:29;;;;;;;4.73;2.87;;;17.20;99.90;;;;;;6039368;23;20444;-80
2022/09/17 09:33:57;;;;;;;5.10;2.60;;;17.20;99.90;;;;;;6038957;23;20431;-77
2022/09/17 09:36:30;;;;;;;6.77;3.17;;;17.30;99.90;;;;;;6039136;23;20745;-77
2022/09/17 09:39:02;;;;;;;4.83;2.03;;;17.30;99.90;;;;;;6025999;23;20770;-79
2022/09/17 09:41:43;;;;;;;6.87;2.40;;;17.30;99.90;;;;;;6039231;23;20522;-79
2022/09/17 09:44:13;;;;;;;2.80;1.90;;;17.40;99.90;;;;;;6041340;23;20441;-79
2022/09/17 09:47:11;;;;;;;6.87;2.10;;;17.50;99.90;;;;;;6026838;23;20435;-77
2022/09/17 09:49:49;;;;;;;6.60;2.03;;;17.40;99.90;;;;;;6041240;23;20436;-77
2022/09/17 09:52:33;;;;;;;3.40;2.07;;;17.50;99.90;;;;;;6041096;23;20517;-77
2022/09/17 09:55:16;;;;;;;5.47;1.70;;;17.40;99.90;;;;;;6027793;23;20501;-78
2022/09/17 09:57:47;;;;;;;4.60;1.87;;;17.50;99.90;;;;;;6040503;23;20438;-77
2022/09/17 10:00:25;;;;;;;5.67;2.80;;;17.50;99.90;;;;;;6041300;23;20725;-79
2022/09/17 10:02:56;;;;;;;8.03;4.20;;;17.50;99.90;;;;;;6040951;23;20443;-78
2022/09/17 10:05:24;;;;;;;6.63;4.13;;;17.50;99.90;;;;;;6040416;23;20490;-78
2022/09/17 10:07:54;;;;;;;4.13;2.80;;;17.60;99.90;;;;;;6039344;23;20443;-78
2022/09/17 10:10:21;;;;;;;5.73;3.10;;;17.60;99.90;;;;;;6040273;23;20798;-76
2022/09/17 10:12:49;;;;;;;7.57;2.37;;;17.60;99.90;;;;;;6041494;23;20446;-79
2022/09/17 10:15:26;;;;;;;3.07;2.03;;;17.60;99.90;;;;;;6040245;23;20451;-81
2022/09/17 10:18:12;;;;;;;4.77;2.10;;;17.60;99.90;;;;;;6041531;23;20481;-79
2022/09/17 10:20:50;;;;;;;5.73;3.03;;;17.70;99.90;;;;;;6041613;23;20435;-77
2022/09/17 10:23:18;;;;;;;4.93;1.90;;;17.70;99.90;;;;;;6040873;23;20432;-79
2022/09/17 10:25:54;;;;;;;6.90;2.90;;;17.70;99.90;;;;;;6042505;23;20445;-77
2022/09/17 10:28:48;;;;;;;5.83;2.43;;;17.70;99.90;;;;;;6012207;23;20439;-77
2022/09/17 10:31:16;;;;;;;3.43;2.03;;;17.60;99.90;;;;;;6012361;23;20440;-77
2022/09/17 10:33:56;;;;;;;8.37;2.17;;;17.70;99.90;;;;;;6012227;23;20468;-77
2022/09/17 10:36:39;;;;;;;2.90;1.53;;;17.70;99.90;;;;;;6010798;23;20430;-79
2022/09/17 10:39:28;;;;;;;9.70;2.20;;;17.60;99.90;;;;;;6012041;23;20439;-79
2022/09/17 10:41:56;;;;;;;7.40;2.37;;;17.50;99.90;;;;;;6017643;23;20508;-79
2022/09/17 10:44:26;;;;;;;5.97;2.63;;;17.40;99.90;;;;;;6039524;23;20431;-78
2022/09/17 10:46:55;;;;;;;5.63;2.17;;;17.30;99.90;;;;;;6041515;23;20442;-79
2022/09/17 10:49:38;;;;;;;9.47;3.67;;;17.20;99.90;;;;;;6040734;23;20446;-77
2022/09/17 10:52:12;;;;;;;17.93;7.57;;;17.20;99.90;;;;;;6039278;23;20466;-77
2022/09/17 10:55:09;;;;;;;12.43;6.07;;;17.20;99.90;;;;;;6040913;23;20443;-79
2022/09/17 10:57:59;;;;;;;8.30;3.40;;;17.20;99.90;;;;;;6041547;23;20454;-77
2022/09/17 11:00:30;;;;;;;11.30;3.30;;;17.20;99.90;;;;;;6039491;23;20478;-79
2022/09/17 11:03:27;;;;;;;8.53;2.83;;;17.20;99.90;;;;;;6040658;23;20461;-77
2022/09/17 11:06:16;;;;;;;4.50;2.23;;;17.20;99.90;;;;;;6040624;23;20490;-78
2022/09/17 11:08:55;;;;;;;7.60;2.30;;;17.30;99.90;;;;;;6039866;23;20457;-78
2022/09/17 11:11:33;;;;;;;6.37;2.30;;;17.30;99.90;;;;;;6038156;23;20443;-79
2022/09/17 11:14:10;;;;;;;3.03;1.70;;;17.30;99.90;;;;;;6039261;23;20435;-74
2022/09/17 11:16:45;;;;;;;3.33;1.50;;;17.40;99.90;;;;;;6040513;23;20452;-78
2022/09/17 11:19:27;;;;;;;4.87;1.90;;;17.40;99.90;;;;;;6040385;23;20525;-78
2022/09/17 11:22:03;;;;;;;5.60;1.93;;;17.40;99.90;;;;;;6039675;23;20441;-78
2022/09/17 11:24:55;;;;;;;5.10;1.53;;;17.50;99.90;;;;;;6040860;23;20443;-78
2022/09/17 11:27:37;;;;;;;6.13;2.20;;;17.50;99.90;;;;;;6038776;23;20446;-77
2022/09/17 11:30:16;;;;;;;5.70;2.30;;;17.60;99.90;;;;;;6035656;23;20443;-76
2022/09/17 11:33:02;;;;;;;5.50;1.53;;;17.70;99.90;;;;;;6050851;23;20457;-75
2022/09/17 11:35:33;;;;;;;3.73;2.10;;;17.70;99.90;;;;;;6038899;23;20509;-79
2022/09/17 11:38:08;;;;;;;4.67;1.60;;;17.70;99.90;;;;;;6039829;23;20511;-78
2022/09/17 11:40:41;;;;;;;3.30;1.53;;;17.70;99.90;;;;;;6039452;23;20525;-78
2022/09/17 11:43:18;;;;;;;6.30;2.03;;;17.70;99.90;;;;;;6039538;23;20540;-77
2022/09/17 11:45:55;;;;;;;4.93;1.47;;;17.70;99.90;;;;;;6038900;23;20447;-78
2022/09/17 11:48:33;;;;;;;6.00;1.93;;;17.60;99.90;;;;;;6039154;23;20495;-77
2022/09/17 11:51:07;;;;;;;5.23;2.00;;;17.60;99.90;;;;;;6040474;23;20437;-77
2022/09/17 11:53:41;;;;;;;2.17;1.57;;;17.50;99.90;;;;;;6039895;23;20519;-77
2022/09/17 11:56:18;;;;;;;4.80;1.93;;;17.50;99.90;;;;;;6033823;23;20730;-76
2022/09/17 11:58:50;;;;;;;4.27;2.13;;;17.50;99.90;;;;;;6039463;23;20429;-78
2022/09/17 12:01:26;;;;;;;3.57;1.63;;;17.50;99.90;;;;;;6039838;23;20451;-76
2022/09/17 12:03:59;;;;;;;3.10;1.40;;;17.50;99.90;;;;;;6037772;23;20430;-77
2022/09/17 12:06:35;;;;;;;3.53;1.77;;;17.50;99.90;;;;;;6040364;23;20447;-77
2022/09/17 12:09:10;;;;;;;3.30;1.47;;;17.50;99.90;;;;;;6039758;23;20435;-77
2022/09/17 12:11:42;;;;;;;4.47;1.70;;;17.60;99.90;;;;;;6040266;23;20478;-77
2022/09/17 12:14:18;;;;;;;4.53;1.60;;;17.60;99.90;;;;;;6039109;23;20427;-78
2022/09/17 12:16:49;;;;;;;2.90;1.83;;;17.60;99.90;;;;;;6040083;23;20462;-78
2022/09/17 12:19:26;;;;;;;2.97;1.53;;;17.60;99.90;;;;;;6039549;23;20444;-79
2022/09/17 12:21:56;;;;;;;2.70;1.77;;;17.70;99.90;;;;;;6039304;23;20460;-77
2022/09/17 12:24:26;;;;;;;3.17;1.30;;;17.70;99.90;;;;;;6040419;23;20444;-79
2022/09/17 12:27:11;;;;;;;3.57;1.37;;;17.80;99.90;;;;;;6039338;23;20451;-76
2022/09/17 12:30:10;;;;;;;3.63;1.67;;;17.80;99.90;;;;;;6040287;23;20471;-80
2022/09/17 12:32:50;;;;;;;2.33;1.17;;;17.80;99.90;;;;;;6040724;23;20438;-79
2022/09/17 12:35:28;;;;;;;3.10;1.40;;;17.90;99.90;;;;;;6040093;23;20447;-77
2022/09/17 12:38:12;;;;;;;1.37;1.03;;;17.90;99.90;;;;;;6039615;23;20428;-78
2022/09/17 12:40:49;;;;;;;2.67;1.90;;;18.10;99.90;;;;;;6027646;23;20442;-78
2022/09/17 12:43:44;;;;;;;3.37;1.40;;;18.20;99.90;;;;;;6038825;23;20439;-76
2022/09/17 12:46:22;;;;;;;3.93;2.07;;;18.20;99.90;;;;;;6040186;23;20937;-76
2022/09/17 12:49:20;;;;;;;2.53;1.10;;;18.30;99.90;;;;;;6040111;23;20441;-76
2022/09/17 12:52:14;;;;;;;1.83;1.03;;;18.40;99.90;;;;;;6037619;23;20437;-78
2022/09/17 12:55:11;;;;;;;2.40;1.50;;;18.40;99.90;;;;;;6024334;23;20437;-79
2022/09/17 12:57:44;;;;;;;4.07;1.30;;;18.40;99.90;;;;;;6039684;23;20441;-76
2022/09/17 13:00:15;;;;;;;1.83;1.30;;;18.40;99.90;;;;;;6028549;23;20429;-77
2022/09/17 13:02:51;;;;;;;4.77;1.40;;;18.40;99.40;;;;;;6048049;23;20444;-76
2022/09/17 13:05:53;;;;;;;2.97;1.27;;;18.40;99.70;;;;;;6039306;23;20456;-78
2022/09/17 13:08:57;;;;;;;1.67;1.10;;;18.40;99.10;;;;;;6039818;23;20819;-76
2022/09/17 13:11:57;;;;;;;2.37;1.20;;;18.40;98.10;;;;;;6039944;23;20759;-75
2022/09/17 13:14:34;;;;;;;2.93;1.20;;;18.30;97.20;;;;;;6037897;23;20497;-75
2022/09/17 13:17:09;;;;;;;4.20;1.47;;;18.30;96.90;;;;;;6042378;23;20441;-79
2022/09/17 13:19:44;;;;;;;2.27;1.07;;;18.20;95.90;;;;;;6041756;23;20864;-76
2022/09/17 13:22:25;;;;;;;2.80;1.87;;;18.20;95.80;;;;;;6041633;23;20698;-77
2022/09/17 13:25:08;;;;;;;3.23;1.73;;;18.20;95.80;;;;;;6041382;23;20467;-78
2022/09/17 13:27:37;;;;;;;4.60;2.13;;;18.10;96.00;;;;;;6042006;23;20516;-77
2022/09/17 13:30:05;;;;;;;5.30;1.57;;;18.10;96.10;;;;;;6041238;23;20437;-77
2022/09/17 13:32:50;;;;;;;4.47;1.73;;;18.10;96.10;;;;;;6043976;23;20477;-77
2022/09/17 13:35:50;;;;;;;2.77;1.50;;;18.10;96.60;;;;;;6042223;23;20432;-78
2022/09/17 13:38:22;;;;;;;1.83;1.20;;;18.00;96.80;;;;;;6041224;23;20428;-77
2022/09/17 13:40:50;;;;;;;2.27;1.40;;;18.00;97.00;;;;;;6041988;23;20444;-77
2022/09/17 13:43:22;;;;;;;2.37;1.20;;;18.00;97.20;;;;;;6040875;23;20444;-79
2022/09/17 13:46:16;;;;;;;2.00;1.20;;;18.10;97.60;;;;;;6041304;23;20516;-76
2022/09/17 13:48:59;;;;;;;1.83;1.20;;;18.10;97.30;;;;;;6040924;23;20512;-78
2022/09/17 13:51:57;;;;;;;2.47;1.77;;;18.10;97.00;;;;;;6041133;23;20984;-78
2022/09/17 13:54:57;;;;;;;3.23;1.90;;;18.20;96.90;;;;;;6040446;23;20440;-77
2022/09/17 13:57:27;;;;;;;4.90;1.60;;;18.20;96.40;;;;;;6040777;23;20441;-77
2022/09/17 13:59:59;;;;;;;3.70;1.87;;;18.20;95.80;;;;;;6041074;23;20463;-76
2022/09/17 14:02:33;;;;;;;2.93;1.40;;;18.20;95.80;;;;;;6040710;23;20450;-76
2022/09/17 14:05:31;;;;;;;3.40;1.80;;;18.20;95.80;;;;;;6040955;23;20478;-78
2022/09/17 14:08:16;;;;;;;1.83;1.20;;;18.20;95.70;;;;;;6041731;23;20441;-78
2022/09/17 14:10:46;;;;;;;1.93;1.10;;;18.20;95.40;;;;;;6041550;23;20799;-78